Time;durP1;ratioP1;P1;durP2;ratioP2;P2;SDS_P1;SDS_P2;PMS_P1;PMS_P2;Temp;Humidity;BMP_temperature;BMP_pressure;BME280_temperature;BME280_humidity;BME280_pressure;Samples;Min_cycle;Max_cycle;Signal;HPM_P1;HPM_P2
2022/06/26 00:01:30;;;;;;;5.43;2.83;;;16.90;99.90;;;;;;5088685;28;20024;-74
2022/06/26 00:03:56;;;;;;;6.60;3.22;;;16.90;99.90;;;;;;5089121;28;20592;-74
2022/06/26 00:06:22;;;;;;;4.15;3.03;;;16.90;99.90;;;;;;5083447;28;20086;-75
2022/06/26 00:08:47;;;;;;;5.55;3.17;;;16.80;99.90;;;;;;5081303;28;20043;-74
2022/06/26 00:11:13;;;;;;;4.70;3.70;;;16.80;99.90;;;;;;5093990;28;20054;-74
2022/06/26 00:13:39;;;;;;;3.83;3.15;;;16.80;99.90;;;;;;5087387;28;20473;-75
2022/06/26 00:16:05;;;;;;;3.00;2.65;;;16.80;99.90;;;;;;5088244;28;20028;-74
2022/06/26 00:18:31;;;;;;;3.50;3.20;;;16.80;99.90;;;;;;5091035;28;20046;-74
2022/06/26 00:20:57;;;;;;;3.83;2.72;;;16.80;99.90;;;;;;5091601;28;20021;-74
2022/06/26 00:23:23;;;;;;;3.65;2.83;;;16.80;99.90;;;;;;5093642;28;20024;-74
2022/06/26 00:25:49;;;;;;;4.30;3.15;;;16.70;99.90;;;;;;5094391;28;20480;-74
2022/06/26 00:28:14;;;;;;;4.00;3.05;;;16.80;99.90;;;;;;5094817;28;20028;-74
2022/06/26 00:30:40;;;;;;;3.53;2.67;;;16.70;99.90;;;;;;5079851;28;20032;-74
2022/06/26 00:33:06;;;;;;;5.82;2.75;;;16.80;99.90;;;;;;5077579;28;20645;-74
2022/06/26 00:35:32;;;;;;;4.00;3.22;;;16.80;99.90;;;;;;5085987;28;20123;-74
2022/06/26 00:37:58;;;;;;;4.22;3.70;;;16.80;99.90;;;;;;5085175;28;20024;-74
2022/06/26 00:40:23;;;;;;;4.63;3.03;;;16.80;99.90;;;;;;5089488;28;20024;-75
2022/06/26 00:42:49;;;;;;;5.18;3.10;;;16.80;99.90;;;;;;5087252;28;20013;-74
2022/06/26 00:45:15;;;;;;;5.78;2.95;;;16.80;99.90;;;;;;5090670;28;20047;-74
2022/06/26 00:47:41;;;;;;;5.90;3.15;;;16.80;99.90;;;;;;5091104;28;20024;-74
2022/06/26 00:50:08;;;;;;;3.63;3.15;;;16.80;99.90;;;;;;5092648;28;20146;-74
2022/06/26 00:52:35;;;;;;;4.05;2.90;;;16.80;99.90;;;;;;5093914;28;20028;-75
2022/06/26 00:55:03;;;;;;;3.35;2.75;;;16.70;99.90;;;;;;5095515;28;20024;-74
2022/06/26 00:57:30;;;;;;;7.85;3.03;;;16.70;99.90;;;;;;5098477;28;20447;-74
2022/06/26 00:59:56;;;;;;;5.53;3.25;;;16.70;99.90;;;;;;5097765;28;20495;-74
2022/06/26 01:02:23;;;;;;;4.05;2.95;;;16.70;99.90;;;;;;5097395;28;20487;-74
2022/06/26 01:04:49;;;;;;;4.53;2.78;;;16.70;99.90;;;;;;5084577;28;20080;-75
2022/06/26 01:07:15;;;;;;;4.10;3.15;;;16.60;99.90;;;;;;5082594;28;20440;-74
2022/06/26 01:09:41;;;;;;;3.65;2.60;;;16.60;99.90;;;;;;5087909;28;20028;-74
2022/06/26 01:12:08;;;;;;;3.90;2.50;;;16.60;99.90;;;;;;5091308;28;20064;-74
2022/06/26 01:14:34;;;;;;;4.15;2.55;;;16.60;99.90;;;;;;5088457;28;20035;-75
2022/06/26 01:17:00;;;;;;;3.25;2.70;;;16.60;99.90;;;;;;5093689;28;20017;-75
2022/06/26 01:19:27;;;;;;;7.63;3.42;;;16.60;99.90;;;;;;5091463;28;20838;-75
2022/06/26 01:21:53;;;;;;;5.63;3.63;;;16.60;99.90;;;;;;5090630;28;20016;-75
2022/06/26 01:24:19;;;;;;;4.47;3.20;;;16.60;99.90;;;;;;5094127;28;20426;-75
2022/06/26 01:26:45;;;;;;;4.25;3.70;;;16.60;99.90;;;;;;5093697;28;20034;-74
2022/06/26 01:29:12;;;;;;;3.63;3.25;;;16.60;99.90;;;;;;5096042;28;20589;-74
2022/06/26 01:31:37;;;;;;;5.65;3.15;;;16.60;99.90;;;;;;5098059;28;20400;-75
2022/06/26 01:34:08;;;;;;;3.53;2.50;;;16.60;99.90;;;;;;5097693;28;20024;-74
2022/06/26 01:36:36;;;;;;;5.38;2.72;;;16.50;99.90;;;;;;5086878;28;20024;-74
2022/06/26 01:39:02;;;;;;;4.70;2.50;;;16.50;99.90;;;;;;5080814;28;20431;-73
2022/06/26 01:41:28;;;;;;;3.55;2.35;;;16.50;99.90;;;;;;5081225;28;20028;-74
2022/06/26 01:43:54;;;;;;;3.65;2.40;;;16.40;99.90;;;;;;5085030;28;20039;-76
2022/06/26 01:46:22;;;;;;;3.45;2.50;;;16.40;99.90;;;;;;5080969;28;20078;-75
2022/06/26 01:48:48;;;;;;;2.63;1.90;;;16.40;99.90;;;;;;5088018;28;20027;-74
2022/06/26 01:51:14;;;;;;;5.88;2.47;;;16.40;99.90;;;;;;5084887;28;20036;-74
2022/06/26 01:53:40;;;;;;;2.60;2.20;;;16.40;99.90;;;;;;5091884;28;20470;-74
2022/06/26 01:56:07;;;;;;;3.20;2.53;;;16.40;99.90;;;;;;5086462;28;20013;-75
2022/06/26 01:58:33;;;;;;;3.22;2.30;;;16.30;99.90;;;;;;5093633;28;20031;-74
2022/06/26 02:00:59;;;;;;;5.72;2.53;;;16.30;99.90;;;;;;5094968;28;20050;-74
2022/06/26 02:03:26;;;;;;;4.95;2.28;;;16.30;99.90;;;;;;5094900;28;20028;-75
2022/06/26 02:05:52;;;;;;;4.70;2.50;;;16.30;99.90;;;;;;5095683;28;20032;-74
2022/06/26 02:08:18;;;;;;;5.65;2.40;;;16.20;99.90;;;;;;5087322;28;20024;-74
2022/06/26 02:13:42;;;;;;;4.82;2.20;;;16.20;99.90;;;;;;5086875;28;20035;-75
2022/06/26 02:16:16;;;;;;;6.30;3.05;;;16.10;99.90;;;;;;5092641;28;20016;-74
2022/06/26 02:18:45;;;;;;;4.10;2.85;;;16.10;99.90;;;;;;5090953;28;20023;-74
2022/06/26 02:21:13;;;;;;;4.30;2.60;;;16.10;99.90;;;;;;5092028;28;20183;-74
2022/06/26 02:23:40;;;;;;;2.58;2.15;;;16.10;99.90;;;;;;5094167;28;20020;-74
2022/06/26 02:26:08;;;;;;;7.43;2.92;;;15.90;99.90;;;;;;5095409;28;20022;-74
2022/06/26 02:28:34;;;;;;;3.08;2.72;;;15.90;99.90;;;;;;5095964;28;20430;-75
2022/06/26 02:31:00;;;;;;;3.33;2.47;;;15.90;99.90;;;;;;5094178;28;20020;-74
2022/06/26 02:33:28;;;;;;;4.07;3.28;;;15.90;99.90;;;;;;5097685;28;20035;-74
2022/06/26 02:35:57;;;;;;;4.95;3.00;;;15.90;99.90;;;;;;5124737;27;20028;-74
2022/06/26 02:38:23;;;;;;;6.25;3.15;;;15.90;99.90;;;;;;5083566;28;20507;-74
2022/06/26 02:40:49;;;;;;;4.22;2.88;;;15.90;99.90;;;;;;5097528;28;20031;-74
2022/06/26 02:43:16;;;;;;;5.57;3.25;;;15.90;99.90;;;;;;5097532;28;20502;-74
2022/06/26 02:45:42;;;;;;;7.22;3.13;;;15.90;99.90;;;;;;5078774;28;20029;-75
2022/06/26 02:48:08;;;;;;;6.60;2.90;;;15.90;99.90;;;;;;5091036;28;20077;-74
2022/06/26 02:50:34;;;;;;;7.85;3.00;;;15.90;99.90;;;;;;5082938;28;20036;-74
2022/06/26 02:53:00;;;;;;;4.70;3.20;;;15.90;99.90;;;;;;5082423;28;20076;-74
2022/06/26 02:55:25;;;;;;;3.88;3.22;;;15.90;99.90;;;;;;5086712;28;20104;-74
2022/06/26 02:57:51;;;;;;;5.85;3.25;;;15.90;99.90;;;;;;5084127;28;20020;-74
2022/06/26 03:00:17;;;;;;;5.85;3.45;;;15.90;99.90;;;;;;5090848;28;20024;-74
2022/06/26 03:02:43;;;;;;;3.53;3.22;;;15.80;99.90;;;;;;5084389;28;20025;-74
2022/06/26 03:05:10;;;;;;;5.05;3.13;;;15.80;99.90;;;;;;5097301;28;20027;-74
2022/06/26 03:07:36;;;;;;;4.65;3.50;;;15.80;99.90;;;;;;5088896;28;20400;-74
2022/06/26 03:10:02;;;;;;;5.95;3.25;;;15.80;99.90;;;;;;5094837;28;20106;-74
2022/06/26 03:12:28;;;;;;;4.38;3.30;;;15.80;99.90;;;;;;5092401;28;20069;-74
2022/06/26 03:14:53;;;;;;;9.15;3.47;;;15.80;99.90;;;;;;5095541;28;20028;-74
2022/06/26 03:17:19;;;;;;;4.25;3.33;;;15.80;99.90;;;;;;5084322;28;20032;-74
2022/06/26 03:19:45;;;;;;;4.55;3.25;;;15.80;99.90;;;;;;5078430;28;20435;-74
2022/06/26 03:22:11;;;;;;;4.63;3.47;;;15.80;99.90;;;;;;5079655;28;20017;-74
2022/06/26 03:24:37;;;;;;;5.90;3.30;;;15.80;99.90;;;;;;5082443;28;20471;-74
2022/06/26 03:27:03;;;;;;;4.85;3.28;;;15.80;99.90;;;;;;5081408;28;20086;-73
2022/06/26 03:29:29;;;;;;;4.60;3.45;;;15.80;99.90;;;;;;5084392;28;20035;-74
2022/06/26 03:31:55;;;;;;;5.20;2.75;;;15.90;99.90;;;;;;5082782;28;20033;-73
2022/06/26 03:34:21;;;;;;;3.88;2.70;;;15.90;99.90;;;;;;5088167;28;20115;-74
2022/06/26 03:36:47;;;;;;;5.03;2.80;;;15.90;99.90;;;;;;5088366;28;20020;-75
2022/06/26 03:39:13;;;;;;;8.48;3.10;;;15.90;99.90;;;;;;5096538;28;20016;-74
2022/06/26 03:41:39;;;;;;;5.05;3.38;;;15.90;99.90;;;;;;5091973;28;20503;-74
2022/06/26 03:44:06;;;;;;;6.90;3.45;;;15.90;99.90;;;;;;5095524;28;20027;-73
2022/06/26 03:46:33;;;;;;;3.42;2.80;;;15.90;99.90;;;;;;5089986;28;20433;-73
2022/06/26 03:48:59;;;;;;;4.05;3.15;;;16.00;99.90;;;;;;5088649;28;20103;-73
2022/06/26 03:51:25;;;;;;;6.72;3.10;;;15.90;99.90;;;;;;5086735;28;20029;-74
2022/06/26 03:53:51;;;;;;;6.80;3.30;;;15.90;99.90;;;;;;5095189;28;20028;-74
2022/06/26 03:56:17;;;;;;;6.47;3.63;;;15.90;99.90;;;;;;5089038;28;20016;-74
2022/06/26 03:58:43;;;;;;;5.13;3.38;;;15.90;99.90;;;;;;5093420;28;20016;-74
2022/06/26 04:01:10;;;;;;;6.97;3.33;;;15.90;99.90;;;;;;5094163;28;20038;-73
2022/06/26 04:03:36;;;;;;;3.60;3.00;;;15.90;99.90;;;;;;5096527;28;20031;-74
2022/06/26 04:06:02;;;;;;;4.95;3.40;;;15.80;99.90;;;;;;5081990;28;20119;-75
2022/06/26 04:08:27;;;;;;;6.88;4.05;;;15.80;99.90;;;;;;5076863;28;20056;-73
2022/06/26 04:10:53;;;;;;;7.70;4.00;;;15.80;99.90;;;;;;5092660;28;20070;-74
2022/06/26 04:13:19;;;;;;;5.00;3.75;;;15.80;99.90;;;;;;5086226;28;20062;-74
2022/06/26 04:15:45;;;;;;;6.25;3.50;;;15.80;99.90;;;;;;5091845;28;20027;-74
2022/06/26 04:18:11;;;;;;;6.88;4.63;;;15.80;99.90;;;;;;5090033;28;20016;-73
2022/06/26 04:20:37;;;;;;;5.88;4.03;;;15.80;99.90;;;;;;5085633;28;20021;-73
2022/06/26 04:23:08;;;;;;;4.45;3.40;;;15.80;99.90;;;;;;5093898;28;20031;-73
2022/06/26 04:25:36;;;;;;;6.53;3.78;;;15.80;99.90;;;;;;5089792;28;20035;-73
2022/06/26 04:28:03;;;;;;;4.40;3.53;;;15.80;99.90;;;;;;5098283;28;20020;-73
2022/06/26 04:30:29;;;;;;;4.65;3.72;;;15.80;99.90;;;;;;5096479;28;20475;-73
2022/06/26 04:32:55;;;;;;;5.43;3.72;;;15.80;99.90;;;;;;5099554;28;20051;-74
2022/06/26 04:35:21;;;;;;;6.32;3.78;;;15.80;99.90;;;;;;5092843;28;20400;-74
2022/06/26 04:37:47;;;;;;;4.47;3.97;;;15.80;99.90;;;;;;5095026;28;20024;-73
2022/06/26 04:40:14;;;;;;;6.10;4.35;;;15.80;99.90;;;;;;5091107;28;20074;-73
2022/06/26 04:42:41;;;;;;;5.93;3.65;;;15.90;99.90;;;;;;5097704;28;20165;-72
2022/06/26 04:45:08;;;;;;;8.05;4.20;;;15.90;99.90;;;;;;5098561;28;20090;-75
2022/06/26 04:47:34;;;;;;;5.55;3.55;;;15.90;99.90;;;;;;5099615;28;20047;-74
2022/06/26 04:50:00;;;;;;;5.63;3.90;;;15.90;99.90;;;;;;5083893;28;20051;-74
2022/06/26 04:52:25;;;;;;;5.55;3.30;;;15.90;99.90;;;;;;5079922;28;20031;-75
2022/06/26 04:54:51;;;;;;;4.68;3.17;;;15.90;99.90;;;;;;5084233;28;20024;-74
2022/06/26 04:57:17;;;;;;;8.43;4.03;;;15.90;99.90;;;;;;5082938;28;20015;-73
2022/06/26 04:59:43;;;;;;;7.25;3.40;;;15.90;99.90;;;;;;5084988;28;20024;-74
2022/06/26 05:02:10;;;;;;;5.03;3.70;;;16.00;99.90;;;;;;5094076;28;20021;-74
2022/06/26 05:04:37;;;;;;;4.40;3.30;;;15.90;99.90;;;;;;5089243;28;20028;-74
2022/06/26 05:07:04;;;;;;;5.22;3.05;;;15.90;99.90;;;;;;5091373;28;20024;-74
2022/06/26 05:09:30;;;;;;;8.15;4.22;;;16.00;99.90;;;;;;5092144;28;20116;-75
2022/06/26 05:11:57;;;;;;;7.80;3.80;;;16.00;99.90;;;;;;5093946;28;20028;-74
2022/06/26 05:14:23;;;;;;;4.85;3.65;;;16.00;99.90;;;;;;5094143;28;20069;-73
2022/06/26 05:16:49;;;;;;;5.47;3.78;;;16.10;99.90;;;;;;5097698;28;20020;-75
2022/06/26 05:19:15;;;;;;;4.07;3.38;;;16.10;99.90;;;;;;5097117;28;20035;-74
2022/06/26 05:21:41;;;;;;;6.35;3.83;;;16.10;99.90;;;;;;5088582;28;20020;-74
2022/06/26 05:24:08;;;;;;;5.53;3.20;;;16.10;99.90;;;;;;5081169;28;20020;-74
2022/06/26 05:26:34;;;;;;;7.32;3.47;;;16.10;99.90;;;;;;5081224;28;20024;-75
2022/06/26 05:29:01;;;;;;;6.75;3.70;;;16.10;99.90;;;;;;5098919;28;20035;-74
2022/06/26 05:31:27;;;;;;;3.25;2.83;;;16.10;99.90;;;;;;5096578;28;20507;-74
2022/06/26 05:33:53;;;;;;;3.70;3.22;;;16.10;99.90;;;;;;5097583;28;20116;-74
2022/06/26 05:36:19;;;;;;;4.00;3.40;;;16.20;99.90;;;;;;5087982;28;20460;-74
2022/06/26 05:38:46;;;;;;;6.45;4.35;;;16.20;99.90;;;;;;5094046;28;20020;-74
2022/06/26 05:41:11;;;;;;;3.75;3.20;;;16.20;99.90;;;;;;5094389;28;20047;-74
2022/06/26 05:43:37;;;;;;;6.63;3.58;;;16.20;99.90;;;;;;5095570;28;20496;-75
2022/06/26 05:46:03;;;;;;;8.57;4.28;;;16.30;99.90;;;;;;5093345;28;20071;-73
2022/06/26 05:48:29;;;;;;;4.22;3.45;;;16.30;99.90;;;;;;5088394;28;20020;-76
2022/06/26 05:50:55;;;;;;;4.88;3.75;;;16.20;99.90;;;;;;5089635;28;20504;-74
2022/06/26 05:53:24;;;;;;;5.13;3.78;;;16.20;99.90;;;;;;5095795;28;20107;-75
2022/06/26 05:55:50;;;;;;;6.53;3.85;;;16.20;99.90;;;;;;5094833;28;20019;-74
2022/06/26 05:58:16;;;;;;;6.07;4.00;;;16.10;99.90;;;;;;5094398;28;20016;-75
2022/06/26 06:00:42;;;;;;;8.65;3.97;;;16.10;99.90;;;;;;5097252;28;20475;-74
2022/06/26 06:03:09;;;;;;;6.65;3.85;;;16.10;99.90;;;;;;5097803;28;20020;-75
2022/06/26 06:05:35;;;;;;;5.85;3.40;;;16.10;99.90;;;;;;5086770;28;20477;-74
2022/06/26 06:08:02;;;;;;;5.90;4.10;;;16.10;99.90;;;;;;5080303;28;20034;-75
2022/06/26 06:10:28;;;;;;;7.20;4.15;;;16.10;99.90;;;;;;5088401;28;20024;-73
2022/06/26 06:12:55;;;;;;;7.32;3.75;;;16.10;99.90;;;;;;5076739;28;20107;-75
2022/06/26 06:15:21;;;;;;;8.90;3.55;;;16.10;99.90;;;;;;5088171;28;20099;-74
2022/06/26 06:17:47;;;;;;;5.97;3.95;;;16.20;99.90;;;;;;5089189;28;20028;-74
2022/06/26 06:20:19;;;;;;;5.95;3.95;;;16.20;99.90;;;;;;5085203;28;20013;-75
2022/06/26 06:23:00;;;;;;;5.47;4.00;;;16.30;99.90;;;;;;5091497;28;20032;-74
2022/06/26 06:25:26;;;;;;;5.28;3.72;;;16.40;99.90;;;;;;5087208;28;20024;-73
2022/06/26 06:27:52;;;;;;;7.30;3.70;;;16.40;99.90;;;;;;5095388;28;20024;-75
2022/06/26 06:30:18;;;;;;;7.05;3.95;;;16.50;99.90;;;;;;5095271;28;20035;-74
2022/06/26 06:32:45;;;;;;;6.93;3.53;;;16.50;99.90;;;;;;5091703;28;20028;-74
2022/06/26 06:35:13;;;;;;;4.03;3.63;;;16.50;99.90;;;;;;5085565;28;20016;-75
2022/06/26 06:37:41;;;;;;;5.80;3.55;;;16.50;99.90;;;;;;5094445;28;20038;-75
2022/06/26 06:40:08;;;;;;;8.57;3.30;;;16.50;99.90;;;;;;5093375;28;20088;-74
2022/06/26 06:42:34;;;;;;;4.18;3.05;;;16.50;99.90;;;;;;5095680;28;20037;-75
2022/06/26 06:45:00;;;;;;;5.60;3.70;;;16.50;99.90;;;;;;5095344;28;20064;-74
2022/06/26 06:47:26;;;;;;;6.50;3.42;;;16.50;99.90;;;;;;5078720;28;20099;-73
2022/06/26 06:49:52;;;;;;;4.47;2.97;;;16.60;99.90;;;;;;5079558;28;20040;-74
2022/06/26 06:52:18;;;;;;;2.97;2.72;;;16.80;99.90;;;;;;5081877;28;20024;-73
2022/06/26 06:54:44;;;;;;;4.45;3.42;;;16.90;99.90;;;;;;5081764;28;20094;-74
2022/06/26 06:57:09;;;;;;;4.13;2.95;;;17.00;99.90;;;;;;5085470;28;20032;-75
2022/06/26 06:59:35;;;;;;;11.88;3.42;;;17.10;99.90;;;;;;5084914;28;20104;-73
2022/06/26 07:02:01;;;;;;;5.88;3.67;;;17.20;99.90;;;;;;5096262;28;20095;-75
2022/06/26 07:04:27;;;;;;;4.35;3.08;;;17.20;99.90;;;;;;5087282;28;20025;-74
2022/06/26 07:06:54;;;;;;;4.07;3.08;;;17.20;99.90;;;;;;5093147;28;20052;-73
2022/06/26 07:09:20;;;;;;;6.15;3.63;;;17.30;99.90;;;;;;5090116;28;20020;-74
2022/06/26 07:11:45;;;;;;;4.63;2.90;;;17.40;99.90;;;;;;5093657;28;20057;-74
2022/06/26 07:14:11;;;;;;;4.90;3.10;;;17.50;99.90;;;;;;5093128;28;20107;-74
2022/06/26 07:16:37;;;;;;;4.18;2.90;;;17.70;99.90;;;;;;5095870;28;20016;-74
2022/06/26 07:19:04;;;;;;;5.72;2.47;;;17.60;99.90;;;;;;5082900;28;20455;-73
2022/06/26 07:21:30;;;;;;;6.13;3.20;;;17.50;99.90;;;;;;5077474;28;20115;-76
2022/06/26 07:23:56;;;;;;;4.18;2.38;;;17.40;99.90;;;;;;5081237;28;20083;-74
2022/06/26 07:26:22;;;;;;;8.63;2.95;;;17.40;99.90;;;;;;5081710;28;20037;-74
2022/06/26 07:28:48;;;;;;;7.57;2.97;;;17.30;99.90;;;;;;5085215;28;20031;-75
2022/06/26 07:31:13;;;;;;;4.00;2.83;;;17.20;99.90;;;;;;5092026;28;20049;-76
2022/06/26 07:36:24;;;;;;;5.68;3.15;;;16.90;99.90;;;;;;5090090;28;20051;-74
2022/06/26 07:38:49;;;;;;;4.07;2.97;;;17.00;99.90;;;;;;5091889;28;20021;-76
2022/06/26 07:41:15;;;;;;;5.22;3.60;;;16.90;99.90;;;;;;5076550;28;20009;-73
2022/06/26 07:43:41;;;;;;;5.97;3.47;;;16.80;99.90;;;;;;5082058;28;20131;-73
2022/06/26 07:46:07;;;;;;;7.18;3.65;;;16.80;99.90;;;;;;5091369;28;20102;-74
2022/06/26 07:48:33;;;;;;;4.47;3.47;;;16.80;99.90;;;;;;5088727;28;20032;-74
2022/06/26 07:51:00;;;;;;;7.78;4.43;;;16.70;99.90;;;;;;5084583;28;20505;-73
2022/06/26 07:53:25;;;;;;;5.45;3.72;;;16.70;99.90;;;;;;5090526;28;20028;-73
2022/06/26 07:55:51;;;;;;;5.20;3.75;;;16.80;99.90;;;;;;5089769;28;20016;-75
2022/06/26 07:58:17;;;;;;;4.65;3.55;;;16.90;99.90;;;;;;5091594;28;20023;-76
2022/06/26 08:00:43;;;;;;;4.95;3.65;;;16.80;99.90;;;;;;5094846;28;20048;-75
2022/06/26 08:03:14;;;;;;;5.93;3.95;;;16.70;99.90;;;;;;5095562;28;20055;-74
2022/06/26 08:05:40;;;;;;;4.80;4.03;;;16.70;99.90;;;;;;5096060;28;20031;-74
2022/06/26 08:08:07;;;;;;;4.72;3.30;;;16.50;99.90;;;;;;5095817;28;20032;-73
2022/06/26 08:10:33;;;;;;;5.22;3.67;;;16.60;99.90;;;;;;5098835;28;20077;-74
2022/06/26 08:12:59;;;;;;;6.90;3.30;;;16.70;99.90;;;;;;5095589;28;20502;-74
2022/06/26 08:15:26;;;;;;;11.88;3.20;;;16.80;99.90;;;;;;5086892;28;20113;-75
2022/06/26 08:17:52;;;;;;;6.40;4.32;;;16.80;99.90;;;;;;5085466;28;20152;-76
2022/06/26 08:20:18;;;;;;;10.52;4.05;;;16.80;99.90;;;;;;5081923;28;20021;-74
2022/06/26 08:22:44;;;;;;;6.10;4.03;;;16.80;99.90;;;;;;5088178;28;20107;-75
2022/06/26 08:25:10;;;;;;;6.55;3.90;;;16.80;99.90;;;;;;5085696;28;20048;-73
2022/06/26 08:27:36;;;;;;;7.18;3.80;;;16.80;99.90;;;;;;5091352;28;20025;-73
2022/06/26 08:30:03;;;;;;;6.25;4.13;;;16.80;99.90;;;;;;5087255;28;20044;-73
2022/06/26 08:32:29;;;;;;;6.25;3.50;;;16.80;99.90;;;;;;5094488;28;20091;-72
2022/06/26 08:34:55;;;;;;;4.57;3.58;;;16.90;99.90;;;;;;5100552;28;20496;-75
2022/06/26 08:37:21;;;;;;;7.53;3.97;;;17.00;99.90;;;;;;5094967;28;20020;-74
2022/06/26 08:39:47;;;;;;;8.07;4.18;;;17.00;99.90;;;;;;5085015;28;20017;-72
2022/06/26 08:42:12;;;;;;;6.90;3.80;;;17.00;99.90;;;;;;5093953;28;20045;-73
2022/06/26 08:44:45;;;;;;;4.47;3.78;;;16.90;99.90;;;;;;5079626;28;20029;-75
2022/06/26 08:47:13;;;;;;;12.25;4.45;;;16.90;99.90;;;;;;5083369;28;20017;-75
2022/06/26 08:49:40;;;;;;;6.32;3.92;;;16.80;99.90;;;;;;5091673;28;20044;-73
2022/06/26 08:52:09;;;;;;;10.32;4.53;;;16.80;99.90;;;;;;5086279;28;20028;-74
2022/06/26 08:54:35;;;;;;;7.15;4.22;;;16.70;99.90;;;;;;5083591;28;20473;-75
2022/06/26 08:57:01;;;;;;;6.45;4.07;;;16.70;99.90;;;;;;5089244;28;20028;-74
2022/06/26 08:59:27;;;;;;;6.55;4.32;;;16.70;99.90;;;;;;5085417;28;20028;-73
2022/06/26 09:01:52;;;;;;;8.13;4.13;;;16.70;99.90;;;;;;5093811;28;20029;-73
2022/06/26 09:04:18;;;;;;;6.22;4.07;;;16.80;99.90;;;;;;5089258;28;20025;-73
2022/06/26 09:06:45;;;;;;;5.63;3.55;;;16.80;99.90;;;;;;5099283;28;20829;-74
2022/06/26 09:09:16;;;;;;;5.75;3.97;;;16.90;99.90;;;;;;5093622;28;20434;-74
2022/06/26 09:11:43;;;;;;;7.20;4.38;;;16.90;99.90;;;;;;5097163;28;20102;-75
2022/06/26 09:14:13;;;;;;;4.93;3.70;;;16.90;99.90;;;;;;5098471;28;20031;-77
2022/06/26 09:16:42;;;;;;;13.13;5.20;;;16.90;99.90;;;;;;5090225;28;20028;-74
2022/06/26 09:19:18;;;;;;;10.63;4.25;;;16.80;99.90;;;;;;5081788;28;20023;-75
2022/06/26 09:21:45;;;;;;;4.78;4.00;;;16.80;99.90;;;;;;5081963;28;20070;-73
2022/06/26 09:24:13;;;;;;;6.28;4.10;;;16.80;99.90;;;;;;5085404;28;20040;-73
2022/06/26 09:26:40;;;;;;;6.13;3.53;;;16.80;99.90;;;;;;5083939;28;20021;-74
2022/06/26 09:29:15;;;;;;;8.68;4.32;;;16.80;99.90;;;;;;5086996;28;20032;-73
2022/06/26 09:31:41;;;;;;;5.65;4.13;;;16.80;99.90;;;;;;5085395;28;20056;-76
2022/06/26 09:34:24;;;;;;;6.75;3.72;;;16.70;99.90;;;;;;5090934;28;20093;-74
2022/06/26 09:37:01;;;;;;;4.93;3.85;;;16.80;99.90;;;;;;5088873;28;20009;-73
2022/06/26 09:39:30;;;;;;;6.93;3.97;;;16.80;99.90;;;;;;5094904;28;20047;-74
2022/06/26 09:41:56;;;;;;;6.18;3.90;;;16.90;99.90;;;;;;5096893;28;20443;-75
2022/06/26 09:44:22;;;;;;;5.68;3.83;;;16.80;99.90;;;;;;5097633;28;20028;-74
2022/06/26 09:46:49;;;;;;;6.53;4.18;;;16.80;99.90;;;;;;5094946;28;20027;-73
2022/06/26 09:49:17;;;;;;;4.78;3.38;;;16.80;99.90;;;;;;5077677;28;20040;-73
2022/06/26 09:51:43;;;;;;;6.93;3.60;;;16.80;99.90;;;;;;5080282;28;20024;-74
2022/06/26 09:54:10;;;;;;;5.60;3.40;;;16.90;99.90;;;;;;5079916;28;20036;-75
2022/06/26 09:56:36;;;;;;;4.85;3.60;;;16.90;99.90;;;;;;5083760;28;20087;-74
2022/06/26 09:59:02;;;;;;;5.05;3.40;;;16.90;99.90;;;;;;5081581;28;20496;-74
2022/06/26 10:07:02;;;;;;;4.72;3.00;;;17.60;99.90;;;;;;5093714;28;20396;-75
2022/06/26 10:09:29;;;;;;;4.22;2.92;;;17.80;99.90;;;;;;5089737;28;20025;-76
2022/06/26 10:12:00;;;;;;;4.82;3.20;;;18.20;99.90;;;;;;5093177;28;20100;-74
2022/06/26 10:14:32;;;;;;;3.92;2.60;;;18.70;99.90;;;;;;5085192;28;20381;-74
2022/06/26 10:17:28;;;;;;;6.63;2.95;;;19.10;99.90;;;;;;5092311;28;20020;-74
2022/06/26 10:20:02;;;;;;;5.88;2.78;;;19.20;99.90;;;;;;5091200;28;20078;-71
2022/06/26 10:22:41;;;;;;;3.33;2.53;;;20.00;99.90;;;;;;5089875;28;20085;-72
2022/06/26 10:25:19;;;;;;;3.75;3.08;;;20.20;99.90;;;;;;5091853;28;20024;-72
2022/06/26 10:27:45;;;;;;;4.93;2.55;;;20.30;99.90;;;;;;5084715;28;20059;-72
2022/06/26 10:30:11;;;;;;;3.40;2.42;;;20.30;99.90;;;;;;5093887;28;20028;-72
2022/06/26 10:32:37;;;;;;;4.10;3.05;;;20.40;99.90;;;;;;5095424;28;20031;-72
2022/06/26 10:35:06;;;;;;;4.07;2.83;;;20.50;99.90;;;;;;5096156;28;20029;-72
2022/06/26 10:37:46;;;;;;;5.60;2.65;;;20.50;99.90;;;;;;5091820;28;20080;-72
2022/06/26 10:42:52;;;;;;;5.85;2.58;;;20.30;99.90;;;;;;5092510;28;20020;-72
2022/06/26 10:43:04;;;;;;;6.35;2.75;;;20.10;99.90;;;;;;5081044;28;20520;-72
2022/06/26 10:45:37;;;;;;;5.93;2.67;;;20.20;99.90;;;;;;5085029;28;20032;-72
2022/06/26 10:48:23;;;;;;;2.80;2.33;;;20.30;99.90;;;;;;5082593;28;20023;-75
2022/06/26 10:51:03;;;;;;;3.20;2.47;;;20.50;99.90;;;;;;5087125;28;20044;-73
2022/06/26 10:53:37;;;;;;;3.65;2.72;;;20.20;99.90;;;;;;5088183;28;20089;-73
2022/06/26 10:56:05;;;;;;;3.47;2.50;;;20.00;99.90;;;;;;5087994;28;20030;-72
2022/06/26 10:58:42;;;;;;;5.00;2.30;;;20.00;99.90;;;;;;5092577;28;20055;-72
2022/06/26 11:01:10;;;;;;;6.05;2.65;;;20.00;99.90;;;;;;5090287;28;20039;-72
2022/06/26 11:03:36;;;;;;;4.55;2.55;;;19.80;99.90;;;;;;5095166;28;20066;-74
2022/06/26 11:06:06;;;;;;;5.20;2.53;;;19.70;99.90;;;;;;5094462;28;20442;-72
2022/06/26 11:08:39;;;;;;;3.75;2.53;;;19.50;99.90;;;;;;5096984;28;20470;-72
2022/06/26 11:11:08;;;;;;;4.32;2.85;;;19.40;99.90;;;;;;5095339;28;20038;-72
2022/06/26 11:13:46;;;;;;;4.80;2.97;;;19.40;99.90;;;;;;5079562;28;20564;-73
2022/06/26 11:16:12;;;;;;;4.75;2.90;;;19.30;99.90;;;;;;5091244;28;20039;-72
2022/06/26 11:18:38;;;;;;;4.40;2.78;;;19.20;99.90;;;;;;5081298;28;20029;-72
2022/06/26 11:21:04;;;;;;;4.25;3.05;;;19.20;99.90;;;;;;5085621;28;20027;-73
2022/06/26 11:23:33;;;;;;;7.40;3.35;;;19.30;99.90;;;;;;5082803;28;20080;-72
2022/06/26 11:26:02;;;;;;;10.00;3.63;;;19.30;99.90;;;;;;5089494;28;20028;-72
2022/06/26 11:28:39;;;;;;;5.15;3.83;;;19.30;99.90;;;;;;5086117;28;20042;-74
2022/06/26 11:31:09;;;;;;;4.38;3.63;;;19.30;99.90;;;;;;5084486;28;20035;-74
2022/06/26 11:33:37;;;;;;;7.75;3.47;;;19.20;99.90;;;;;;5089074;28;20021;-74
2022/06/26 11:36:11;;;;;;;3.90;3.15;;;19.30;99.90;;;;;;5095148;28;20051;-72
2022/06/26 11:38:37;;;;;;;4.03;3.20;;;19.40;99.90;;;;;;5093052;28;20020;-72
2022/06/26 11:41:06;;;;;;;8.52;3.58;;;19.40;99.90;;;;;;5097093;28;20362;-75
2022/06/26 11:43:33;;;;;;;5.38;3.00;;;19.50;99.90;;;;;;5081595;28;20028;-73
2022/06/26 11:46:02;;;;;;;7.00;2.92;;;19.50;99.90;;;;;;5078444;28;20033;-74
2022/06/26 11:48:29;;;;;;;5.68;3.20;;;19.50;99.90;;;;;;5080963;28;20031;-75
2022/06/26 11:50:56;;;;;;;3.90;3.08;;;19.60;99.90;;;;;;5080048;28;20056;-75
2022/06/26 11:53:28;;;;;;;10.93;3.65;;;19.60;99.90;;;;;;5083892;28;20107;-72
2022/06/26 11:56:03;;;;;;;3.45;2.80;;;19.70;99.90;;;;;;5080452;28;20021;-74
2022/06/26 11:58:33;;;;;;;4.80;3.28;;;19.90;99.90;;;;;;5093326;28;20587;-73
2022/06/26 12:01:08;;;;;;;;;;;19.70;99.90;;;;;;5093398;28;20044;-72
2022/06/26 12:03:35;;;;;;;4.53;2.90;;;19.60;99.90;;;;;;5082415;28;20372;-72
2022/06/26 12:06:01;;;;;;;6.72;3.20;;;19.60;99.90;;;;;;5093959;28;20500;-72
2022/06/26 12:08:29;;;;;;;4.05;3.10;;;19.50;99.90;;;;;;5088121;28;20028;-74
2022/06/26 12:10:55;;;;;;;7.57;3.83;;;19.50;99.90;;;;;;5084594;28;20055;-73
2022/06/26 12:13:29;;;;;;;4.65;3.53;;;19.50;99.90;;;;;;5091729;28;20438;-72
2022/06/26 12:16:01;;;;;;;4.10;3.47;;;19.50;99.90;;;;;;5092238;28;20021;-74
2022/06/26 12:18:27;;;;;;;8.50;2.50;;;19.50;99.90;;;;;;5092728;28;20027;-73
2022/06/26 12:20:53;;;;;;;4.47;3.05;;;19.50;99.90;;;;;;5092028;28;20472;-72
2022/06/26 12:23:34;;;;;;;3.50;2.58;;;19.50;99.90;;;;;;5095682;28;20516;-73
2022/06/26 12:26:08;;;;;;;5.07;2.00;;;19.60;99.90;;;;;;5091525;28;20032;-73
2022/06/26 12:28:52;;;;;;;5.35;2.50;;;19.50;99.90;;;;;;5076184;28;20101;-72
2022/06/26 12:31:20;;;;;;;6.22;2.65;;;19.50;99.90;;;;;;5086437;28;20024;-74
2022/06/26 12:33:47;;;;;;;5.07;2.50;;;19.40;99.90;;;;;;5088935;28;20025;-74
2022/06/26 12:36:14;;;;;;;4.10;2.35;;;19.40;99.90;;;;;;5086636;28;20072;-71
2022/06/26 12:38:41;;;;;;;4.53;2.20;;;19.40;99.90;;;;;;5087864;28;20016;-73
2022/06/26 12:41:16;;;;;;;2.15;1.70;;;19.50;99.90;;;;;;5089555;28;20047;-72
2022/06/26 12:43:53;;;;;;;2.00;1.80;;;19.60;99.90;;;;;;5092570;28;20039;-73
2022/06/26 12:46:19;;;;;;;2.78;1.85;;;19.60;99.90;;;;;;5091830;28;20056;-73
2022/06/26 12:48:46;;;;;;;2.60;2.10;;;19.60;99.90;;;;;;5095983;28;20028;-73
2022/06/26 12:51:13;;;;;;;2.30;1.88;;;19.70;99.90;;;;;;5095476;28;20534;-72
2022/06/26 12:53:40;;;;;;;6.65;3.30;;;19.70;99.90;;;;;;5098610;28;20077;-74
2022/06/26 12:56:07;;;;;;;3.13;1.98;;;19.80;99.90;;;;;;5099127;28;20099;-74
2022/06/26 12:58:33;;;;;;;3.22;2.10;;;19.60;99.90;;;;;;5080250;28;20416;-73
2022/06/26 13:00:59;;;;;;;3.95;2.70;;;19.40;99.90;;;;;;5080906;28;20020;-74